Time;durP1;ratioP1;P1;durP2;ratioP2;P2;SDS_P1;SDS_P2;PMS_P1;PMS_P2;Temp;Humidity;BMP_temperature;BMP_pressure;BME280_temperature;BME280_humidity;BME280_pressure;Samples;Min_cycle;Max_cycle;Signal;HPM_P1;HPM_P2
2022/01/27 00:01:06;;;;;;;94.88;60.13;;;6.30;82.80;;;;;;5012673;28;20040;-84
2022/01/27 00:03:59;;;;;;;82.13;51.70;;;6.20;83.10;;;;;;5011219;28;20038;-84
2022/01/27 00:06:25;;;;;;;94.22;58.92;;;6.30;83.10;;;;;;5012759;28;20034;-83
2022/01/27 00:09:00;;;;;;;94.55;55.67;;;6.30;82.80;;;;;;5012856;28;20092;-83
2022/01/27 00:11:25;;;;;;;91.35;55.20;;;6.30;83.00;;;;;;5012276;28;20088;-83
2022/01/27 00:13:59;;;;;;;95.72;55.83;;;6.30;83.10;;;;;;5011898;28;20042;-83
2022/01/27 00:16:28;;;;;;;79.43;49.78;;;6.30;83.00;;;;;;5007961;28;20038;-83
2022/01/27 00:18:55;;;;;;;101.93;59.00;;;6.30;83.20;;;;;;5012867;28;20072;-82
2022/01/27 00:21:27;;;;;;;85.80;51.42;;;6.30;82.90;;;;;;5010885;28;20042;-82
2022/01/27 00:23:53;;;;;;;80.60;47.05;;;6.30;82.90;;;;;;5012176;28;20081;-82
2022/01/27 00:26:19;;;;;;;81.35;49.22;;;6.40;82.80;;;;;;4994539;28;20402;-81
2022/01/27 00:28:47;;;;;;;96.20;56.42;;;6.50;82.60;;;;;;5011833;28;20041;-81
2022/01/27 00:31:13;;;;;;;104.50;62.58;;;6.40;82.40;;;;;;5008917;28;20482;-82
2022/01/27 00:33:39;;;;;;;98.60;62.75;;;6.30;82.70;;;;;;5012531;28;20037;-81
2022/01/27 00:36:05;;;;;;;87.82;54.58;;;6.30;82.90;;;;;;5012470;28;20065;-83
2022/01/27 00:38:32;;;;;;;103.72;63.90;;;6.20;83.00;;;;;;5011213;28;20168;-83
2022/01/27 00:40:58;;;;;;;88.60;52.58;;;6.20;83.40;;;;;;5009821;28;20504;-82
2022/01/27 00:43:24;;;;;;;80.22;48.28;;;6.30;83.10;;;;;;5009224;28;20376;-80
2022/01/27 00:45:50;;;;;;;101.75;61.50;;;6.30;82.80;;;;;;5011790;28;20034;-81
2022/01/27 00:48:17;;;;;;;102.72;61.00;;;6.30;83.10;;;;;;5010951;28;20387;-81
2022/01/27 00:50:47;;;;;;;114.30;68.70;;;6.30;83.30;;;;;;4993770;28;20038;-83
2022/01/27 00:55:51;;;;;;;103.88;61.10;;;6.20;83.70;;;;;;5008028;28;20038;-82
2022/01/27 01:01:00;;;;;;;81.97;51.22;;;6.10;84.00;;;;;;5008310;28;20116;-81
2022/01/27 01:03:35;;;;;;;89.63;51.50;;;6.20;84.10;;;;;;5010575;28;20045;-82
2022/01/27 01:17:05;;;;;;;93.75;56.15;;;6.10;84.30;;;;;;5011101;28;20042;-82
2022/01/27 01:19:28;;;;;;;102.07;60.40;;;6.10;84.30;;;;;;5005505;28;20569;-81
2022/01/27 01:30:33;;;;;;;87.75;53.45;;;6.00;84.60;;;;;;5009202;28;20025;-82
2022/01/27 01:33:03;;;;;;;101.77;58.00;;;6.00;84.60;;;;;;5008225;28;20030;-83
2022/01/27 01:35:46;;;;;;;92.68;55.22;;;6.00;84.40;;;;;;5008144;28;20034;-81
2022/01/27 01:38:14;;;;;;;96.68;57.08;;;6.00;84.50;;;;;;5015607;28;20084;-80
2022/01/27 01:40:39;;;;;;;110.40;65.60;;;6.00;84.60;;;;;;5008675;28;20083;-81
2022/01/27 01:43:05;;;;;;;100.82;59.33;;;6.00;84.40;;;;;;5015652;28;20042;-82
2022/01/27 01:45:34;;;;;;;108.50;63.15;;;5.90;84.60;;;;;;5015635;28;20042;-82
2022/01/27 01:48:00;;;;;;;93.90;54.95;;;5.90;85.40;;;;;;5015552;28;20505;-81
2022/01/27 01:50:26;;;;;;;102.88;59.92;;;5.90;84.90;;;;;;5014316;28;20046;-81
2022/01/27 01:52:52;;;;;;;102.15;61.03;;;5.90;84.90;;;;;;5014580;28;20029;-82
2022/01/27 01:55:18;;;;;;;91.00;54.15;;;5.80;84.80;;;;;;5013991;28;20470;-82
2022/01/27 01:57:44;;;;;;;105.32;62.83;;;5.80;85.10;;;;;;5014899;28;20104;-82
2022/01/27 02:00:13;;;;;;;107.10;63.35;;;5.80;85.00;;;;;;5014458;28;20037;-82
2022/01/27 02:02:40;;;;;;;102.63;62.45;;;5.80;84.90;;;;;;4996512;28;20401;-82
2022/01/27 02:05:06;;;;;;;102.90;59.95;;;5.70;85.30;;;;;;4996735;28;20034;-82
2022/01/27 02:07:50;;;;;;;99.03;59.15;;;5.60;85.50;;;;;;5013932;28;20093;-82
2022/01/27 02:18:23;;;;;;;100.78;60.42;;;5.60;85.50;;;;;;5013543;28;20893;-82
2022/01/27 02:20:49;;;;;;;106.40;61.17;;;5.50;85.50;;;;;;5010921;28;20034;-82
2022/01/27 02:23:14;;;;;;;108.53;63.30;;;5.50;85.70;;;;;;5013485;28;20066;-82
2022/01/27 02:25:40;;;;;;;92.55;57.40;;;5.50;85.90;;;;;;4996912;28;20046;-83
2022/01/27 02:28:06;;;;;;;105.90;61.97;;;5.40;85.90;;;;;;5013249;28;20066;-81
2022/01/27 02:30:32;;;;;;;86.88;52.13;;;5.50;85.80;;;;;;4995655;28;20057;-82
2022/01/27 02:32:59;;;;;;;80.47;49.30;;;5.50;85.80;;;;;;5013633;28;20167;-82
2022/01/27 02:35:27;;;;;;;90.63;53.05;;;5.60;85.60;;;;;;5013283;28;20132;-82
2022/01/27 02:37:54;;;;;;;93.40;55.90;;;5.70;85.30;;;;;;5014128;28;20104;-82
2022/01/27 02:40:36;;;;;;;95.22;56.30;;;5.70;85.20;;;;;;4997090;28;20041;-81
2022/01/27 02:43:04;;;;;;;96.32;56.92;;;5.70;84.90;;;;;;5009940;28;20394;-82
2022/01/27 02:45:54;;;;;;;92.20;55.05;;;5.70;85.30;;;;;;5012816;28;20050;-83
2022/01/27 02:48:20;;;;;;;90.90;54.67;;;5.60;85.50;;;;;;5012487;28;20030;-82
2022/01/27 02:50:45;;;;;;;111.75;66.28;;;5.60;85.60;;;;;;5006359;28;20065;-82
2022/01/27 02:53:11;;;;;;;106.63;64.45;;;5.60;85.20;;;;;;5011482;28;20064;-82
2022/01/27 02:55:38;;;;;;;95.38;56.45;;;5.50;85.40;;;;;;5013715;28;20030;-81
2022/01/27 02:58:04;;;;;;;101.82;61.00;;;5.50;85.90;;;;;;5009599;28;20048;-82
2022/01/27 03:00:32;;;;;;;116.78;67.05;;;5.40;85.80;;;;;;5012544;28;20034;-81
2022/01/27 03:02:58;;;;;;;108.28;62.85;;;5.40;86.10;;;;;;5013547;28;20034;-82
2022/01/27 03:05:23;;;;;;;99.20;57.53;;;5.40;86.40;;;;;;5009122;28;20041;-81
2022/01/27 03:07:49;;;;;;;91.55;54.88;;;5.50;86.10;;;;;;4993295;28;20042;-81
2022/01/27 03:10:16;;;;;;;115.68;65.38;;;5.50;85.80;;;;;;4994786;28;20443;-82
2022/01/27 03:12:44;;;;;;;108.38;64.43;;;5.50;85.80;;;;;;5011531;28;20445;-82
2022/01/27 03:15:11;;;;;;;121.13;68.63;;;5.40;85.90;;;;;;5012925;28;20060;-82
2022/01/27 03:17:38;;;;;;;97.20;56.05;;;5.30;86.10;;;;;;4995386;28;20462;-82
2022/01/27 03:20:05;;;;;;;116.97;65.78;;;5.30;86.60;;;;;;5013151;28;20121;-82
2022/01/27 03:22:31;;;;;;;107.22;62.35;;;5.30;86.60;;;;;;4995299;28;20037;-82
2022/01/27 03:24:57;;;;;;;126.75;73.22;;;5.30;86.60;;;;;;5013177;28;20037;-81
2022/01/27 03:27:25;;;;;;;116.85;67.40;;;5.30;86.60;;;;;;5012694;28;20490;-82
2022/01/27 03:29:51;;;;;;;128.82;74.13;;;5.20;86.90;;;;;;5012925;28;20030;-83
2022/01/27 03:32:18;;;;;;;125.88;70.82;;;5.10;86.70;;;;;;5012455;28;20533;-82
2022/01/27 03:34:43;;;;;;;108.40;62.45;;;5.10;87.10;;;;;;5012236;28;20045;-82
2022/01/27 03:37:09;;;;;;;99.13;56.85;;;5.10;87.30;;;;;;5012150;28;20030;-80
2022/01/27 03:39:37;;;;;;;101.18;59.38;;;5.20;87.80;;;;;;5012323;28;20041;-80
2022/01/27 03:42:04;;;;;;;112.47;64.10;;;5.20;87.20;;;;;;4995287;28;20029;-82
2022/01/27 03:44:30;;;;;;;94.60;55.60;;;5.20;86.80;;;;;;5012403;28;20516;-82
2022/01/27 03:46:56;;;;;;;85.38;50.85;;;5.30;86.80;;;;;;5012456;28;20034;-82
2022/01/27 03:49:22;;;;;;;88.57;50.95;;;5.40;86.50;;;;;;5012847;28;20048;-81
2022/01/27 03:51:48;;;;;;;111.53;64.60;;;5.40;86.10;;;;;;4995118;28;20034;-82
2022/01/27 03:54:14;;;;;;;112.95;64.93;;;5.50;85.70;;;;;;5012631;28;20038;-83
2022/01/27 03:56:41;;;;;;;113.55;66.47;;;5.40;86.00;;;;;;4992557;28;20034;-82
2022/01/27 03:59:06;;;;;;;111.35;64.35;;;5.30;86.20;;;;;;5011237;28;20046;-82
2022/01/27 04:01:32;;;;;;;126.93;72.65;;;5.30;86.40;;;;;;5012602;28;20556;-82
2022/01/27 04:03:59;;;;;;;98.57;59.90;;;5.20;86.40;;;;;;4994642;28;20133;-81
2022/01/27 04:06:33;;;;;;;114.60;64.90;;;5.20;86.80;;;;;;5012244;28;20037;-82
2022/01/27 04:09:00;;;;;;;112.40;63.35;;;5.20;86.70;;;;;;5010886;28;20036;-83
2022/01/27 04:11:26;;;;;;;110.25;65.50;;;5.20;86.90;;;;;;5012963;28;20060;-82
2022/01/27 04:13:52;;;;;;;100.85;56.67;;;5.20;86.90;;;;;;4995350;28;20049;-83
2022/01/27 04:16:18;;;;;;;100.57;58.78;;;5.20;87.00;;;;;;4994704;28;20029;-83
2022/01/27 04:18:45;;;;;;;111.90;62.60;;;5.30;87.00;;;;;;5012772;28;20501;-83
2022/01/27 04:21:12;;;;;;;95.15;55.40;;;5.30;86.60;;;;;;5013156;28;20030;-83
2022/01/27 04:23:37;;;;;;;97.95;56.05;;;5.30;86.80;;;;;;5013326;28;20038;-83
2022/01/27 04:26:05;;;;;;;93.20;52.80;;;5.30;86.70;;;;;;5012580;28;20026;-82
2022/01/27 04:28:33;;;;;;;84.60;49.50;;;5.40;86.50;;;;;;5010775;28;20040;-81
2022/01/27 04:31:02;;;;;;;100.90;59.95;;;5.50;86.20;;;;;;4991759;28;20026;-81
2022/01/27 04:33:46;;;;;;;97.93;58.08;;;5.50;86.00;;;;;;4994189;28;20065;-81
2022/01/27 04:36:22;;;;;;;84.57;50.97;;;5.50;85.90;;;;;;5011861;28;20037;-81
2022/01/27 04:39:08;;;;;;;106.97;62.28;;;5.40;86.00;;;;;;5010807;28;20070;-80
2022/01/27 04:41:55;;;;;;;90.85;55.25;;;5.40;86.30;;;;;;5011039;28;20112;-81
2022/01/27 04:44:43;;;;;;;90.72;52.67;;;5.40;86.60;;;;;;4992554;28;20486;-81
2022/01/27 04:47:20;;;;;;;78.85;47.28;;;5.30;86.60;;;;;;5009126;28;20034;-81
2022/01/27 04:49:46;;;;;;;81.45;47.45;;;5.40;86.50;;;;;;4989891;28;20065;-81
2022/01/27 04:52:12;;;;;;;84.25;48.58;;;5.50;86.30;;;;;;5003165;28;20027;-81
2022/01/27 04:54:51;;;;;;;104.35;59.67;;;5.60;85.90;;;;;;5011820;28;20092;-81
2022/01/27 04:57:17;;;;;;;116.22;68.20;;;5.60;85.80;;;;;;5012017;28;20042;-81
2022/01/27 04:59:45;;;;;;;116.30;66.72;;;5.50;86.30;;;;;;5012609;28;20375;-81
2022/01/27 05:02:57;;;;;;;102.60;60.28;;;5.40;86.70;;;;;;4993693;28;20048;-83
2022/01/27 05:04:59;;;;;;;90.63;52.67;;;5.30;86.90;;;;;;4998703;28;20440;-82
2022/01/27 05:07:25;;;;;;;91.95;52.05;;;5.40;87.00;;;;;;5012569;28;20128;-81
2022/01/27 05:09:57;;;;;;;82.82;48.03;;;5.40;86.90;;;;;;5016582;28;20421;-82
2022/01/27 05:13:09;;;;;;;87.18;51.40;;;5.50;86.70;;;;;;4998660;28;20432;-80
2022/01/27 05:15:11;;;;;;;108.30;59.88;;;5.50;86.60;;;;;;5001058;28;20030;-81
2022/01/27 05:17:37;;;;;;;109.00;62.00;;;5.50;86.60;;;;;;5016196;28;20374;-80
2022/01/27 05:20:03;;;;;;;110.53;62.13;;;5.40;87.10;;;;;;5014960;28;20042;-80
2022/01/27 05:22:31;;;;;;;110.88;65.32;;;5.40;87.00;;;;;;5016057;28;20056;-81
2022/01/27 05:24:57;;;;;;;118.25;67.38;;;5.40;87.20;;;;;;5015398;28;20049;-81
2022/01/27 05:27:23;;;;;;;110.43;64.50;;;5.30;87.30;;;;;;4997462;28;20038;-81
2022/01/27 05:29:49;;;;;;;117.57;66.68;;;5.30;87.50;;;;;;4998035;28;20088;-83
2022/01/27 05:32:14;;;;;;;120.82;68.55;;;5.30;87.50;;;;;;4991251;28;20057;-83
2022/01/27 05:34:40;;;;;;;101.40;59.92;;;5.20;87.70;;;;;;5016431;28;20045;-83
2022/01/27 05:37:06;;;;;;;113.07;65.72;;;5.30;87.80;;;;;;5015744;28;20042;-83
2022/01/27 05:39:31;;;;;;;117.78;64.93;;;5.30;87.40;;;;;;4993547;28;20498;-80
2022/01/27 05:41:57;;;;;;;121.95;68.38;;;5.30;87.50;;;;;;5015367;28;20050;-79
2022/01/27 05:44:23;;;;;;;110.68;63.95;;;5.20;87.60;;;;;;5012445;28;20042;-82
2022/01/27 05:46:48;;;;;;;107.53;62.80;;;5.20;87.80;;;;;;5015022;28;20508;-81
2022/01/27 05:49:14;;;;;;;123.57;72.82;;;5.20;88.00;;;;;;4996820;28;20427;-82
2022/01/27 05:51:40;;;;;;;119.78;66.57;;;5.10;88.00;;;;;;5015493;28;20076;-82
2022/01/27 05:54:05;;;;;;;108.47;63.92;;;5.10;88.30;;;;;;5015039;28;20028;-82
2022/01/27 05:56:34;;;;;;;102.82;58.67;;;5.10;88.40;;;;;;5009059;28;20029;-81
2022/01/27 05:58:59;;;;;;;128.48;68.85;;;5.10;88.50;;;;;;5012703;28;20046;-81
2022/01/27 06:01:26;;;;;;;111.47;65.40;;;5.10;88.40;;;;;;5013956;28;20057;-81
2022/01/27 06:03:52;;;;;;;127.70;71.93;;;5.10;88.70;;;;;;5014480;28;20184;-80
2022/01/27 06:06:18;;;;;;;118.95;68.63;;;5.00;88.80;;;;;;4995952;28;20477;-81
2022/01/27 06:08:44;;;;;;;109.60;61.97;;;5.10;89.10;;;;;;5015148;28;20046;-82
2022/01/27 06:11:10;;;;;;;117.18;67.25;;;5.00;89.30;;;;;;5015626;28;20045;-82
2022/01/27 06:13:36;;;;;;;113.07;64.00;;;5.10;89.00;;;;;;4998201;28;20037;-83
2022/01/27 06:16:21;;;;;;;117.80;65.78;;;5.10;89.00;;;;;;5012673;28;20117;-81
2022/01/27 06:18:47;;;;;;;116.55;66.68;;;5.20;88.80;;;;;;5011637;28;20083;-81
2022/01/27 06:21:13;;;;;;;102.20;58.65;;;5.10;88.60;;;;;;5014443;28;20042;-81
2022/01/27 06:23:39;;;;;;;100.60;58.15;;;5.10;88.80;;;;;;5012607;28;20030;-82
2022/01/27 06:26:05;;;;;;;106.50;60.92;;;5.20;88.60;;;;;;5015015;28;20040;-82
2022/01/27 06:28:31;;;;;;;119.65;65.55;;;5.20;88.30;;;;;;5014010;28;20037;-81
2022/01/27 06:30:57;;;;;;;97.93;56.17;;;5.30;88.00;;;;;;4990919;28;20049;-78
2022/01/27 06:33:22;;;;;;;104.45;60.75;;;5.30;88.30;;;;;;4995546;28;20740;-79
2022/01/27 06:35:49;;;;;;;103.95;59.47;;;5.20;88.00;;;;;;5010192;28;20478;-79
2022/01/27 06:38:14;;;;;;;95.40;53.50;;;5.20;88.40;;;;;;4997243;28;20054;-80
2022/01/27 06:40:40;;;;;;;99.40;58.45;;;5.30;88.30;;;;;;4986108;28;20101;-79
2022/01/27 06:43:06;;;;;;;108.88;61.35;;;5.30;87.90;;;;;;5008918;28;20034;-79
2022/01/27 06:45:31;;;;;;;94.40;53.22;;;5.30;88.20;;;;;;5014237;28;20124;-80
2022/01/27 06:47:57;;;;;;;90.40;51.97;;;5.40;88.30;;;;;;5011151;28;20034;-77
2022/01/27 06:50:23;;;;;;;115.15;61.50;;;5.50;88.00;;;;;;5010262;28;20034;-77
2022/01/27 06:52:49;;;;;;;103.53;58.85;;;5.50;87.90;;;;;;5011404;28;20033;-81
2022/01/27 06:55:17;;;;;;;102.55;57.55;;;5.50;87.60;;;;;;4990603;28;20061;-80
2022/01/27 06:57:44;;;;;;;116.13;62.50;;;5.50;87.90;;;;;;5008482;28;20136;-85
2022/01/27 07:00:11;;;;;;;118.10;65.30;;;5.60;87.60;;;;;;5012651;28;20034;-79
2022/01/27 07:02:37;;;;;;;116.97;67.82;;;5.50;87.50;;;;;;5013524;28;20136;-78
2022/01/27 07:05:03;;;;;;;123.30;68.72;;;5.50;87.90;;;;;;5013121;28;20066;-81
2022/01/27 07:07:29;;;;;;;104.10;59.88;;;5.40;88.20;;;;;;5013595;28;20064;-86
2022/01/27 07:09:54;;;;;;;118.43;65.88;;;5.40;88.90;;;;;;5015030;28;20036;-84
2022/01/27 07:12:20;;;;;;;102.03;58.95;;;5.50;88.70;;;;;;5011996;28;20037;-86
2022/01/27 07:14:46;;;;;;;128.75;70.63;;;5.50;88.60;;;;;;4984249;28;20049;-89
2022/01/27 07:17:14;;;;;;;95.70;54.70;;;5.50;88.10;;;;;;5015666;28;20042;-85
2022/01/27 07:19:39;;;;;;;103.82;57.97;;;5.60;88.60;;;;;;5015474;28;20053;-80
2022/01/27 07:22:05;;;;;;;100.90;55.63;;;5.60;88.10;;;;;;5011546;28;20037;-83
2022/01/27 07:24:31;;;;;;;95.53;53.85;;;5.70;88.00;;;;;;5015687;28;20037;-84
2022/01/27 07:26:56;;;;;;;101.25;56.03;;;5.70;87.70;;;;;;5011679;28;20038;-83
2022/01/27 07:29:22;;;;;;;117.18;63.97;;;5.70;87.60;;;;;;4999567;28;20462;-83
2022/01/27 07:31:48;;;;;;;110.70;59.38;;;5.70;87.50;;;;;;5015790;28;20525;-84
2022/01/27 07:34:14;;;;;;;115.32;61.47;;;5.60;87.80;;;;;;5010038;28;20042;-82
2022/01/27 07:36:40;;;;;;;120.95;64.78;;;5.70;88.10;;;;;;4993119;28;20568;-79
2022/01/27 07:39:13;;;;;;;128.02;72.22;;;5.60;88.10;;;;;;4996335;28;20038;-80
2022/01/27 07:41:39;;;;;;;111.18;61.22;;;5.50;88.20;;;;;;4996966;28;20136;-79
2022/01/27 07:44:05;;;;;;;135.63;70.35;;;5.50;88.90;;;;;;5014071;28;20163;-79
2022/01/27 07:46:30;;;;;;;101.85;55.45;;;5.40;88.90;;;;;;4990443;28;20390;-85
2022/01/27 07:48:56;;;;;;;116.03;64.30;;;5.50;89.40;;;;;;5022199;28;20112;-85
2022/01/27 07:51:22;;;;;;;121.40;67.25;;;5.50;88.90;;;;;;4996124;28;20433;-80
2022/01/27 07:53:48;;;;;;;143.70;73.32;;;5.50;89.00;;;;;;4988092;28;20412;-79
2022/01/27 07:56:14;;;;;;;110.93;60.72;;;5.40;89.10;;;;;;5014009;28;20118;-79
2022/01/27 07:58:43;;;;;;;103.10;54.63;;;5.50;89.90;;;;;;5013448;28;20056;-79
2022/01/27 08:01:08;;;;;;;117.43;64.45;;;5.60;89.60;;;;;;5001214;28;20121;-78
2022/01/27 08:03:38;;;;;;;113.93;61.15;;;5.50;89.10;;;;;;5002127;28;20514;-82
2022/01/27 08:06:05;;;;;;;121.85;65.68;;;5.50;89.40;;;;;;5007177;28;20037;-82
2022/01/27 08:08:31;;;;;;;112.32;57.75;;;5.50;88.90;;;;;;5008265;28;20052;-82
2022/01/27 08:10:58;;;;;;;106.78;56.35;;;5.50;89.50;;;;;;4980184;28;20034;-84
2022/01/27 08:13:24;;;;;;;123.00;66.80;;;5.60;89.20;;;;;;5014393;28;20038;-84
2022/01/27 08:15:50;;;;;;;102.10;56.72;;;5.60;89.30;;;;;;4989157;28;20132;-83
2022/01/27 08:18:16;;;;;;;126.28;67.18;;;5.70;89.70;;;;;;4997835;28;20121;-84
2022/01/27 08:20:41;;;;;;;134.27;73.50;;;5.60;89.30;;;;;;5013848;28;20502;-85
2022/01/27 08:23:07;;;;;;;127.82;67.88;;;5.50;89.30;;;;;;5006127;28;20041;-85
2022/01/27 08:25:34;;;;;;;112.00;59.50;;;5.50;89.80;;;;;;4980751;28;20050;-85
2022/01/27 08:28:03;;;;;;;122.03;64.65;;;5.50;89.70;;;;;;4985645;28;20499;-85
2022/01/27 08:30:36;;;;;;;97.35;55.78;;;5.60;89.40;;;;;;5007115;28;20038;-84
2022/01/27 08:33:08;;;;;;;128.00;67.05;;;5.60;89.50;;;;;;4995152;28;20029;-80
2022/01/27 08:35:34;;;;;;;151.48;84.30;;;5.60;88.80;;;;;;4996996;28;20394;-79
2022/01/27 08:38:00;;;;;;;139.57;77.22;;;5.50;89.20;;;;;;5002050;28;20037;-79
2022/01/27 08:40:25;;;;;;;146.70;81.15;;;5.40;89.30;;;;;;4991390;28;20513;-80
2022/01/27 08:42:51;;;;;;;139.75;74.38;;;5.30;89.60;;;;;;5007726;28;20553;-84
2022/01/27 08:45:20;;;;;;;121.28;66.45;;;5.30;89.80;;;;;;5006149;28;20038;-84
2022/01/27 08:47:47;;;;;;;122.13;64.43;;;5.20;90.10;;;;;;4977700;28;20042;-85
2022/01/27 08:50:20;;;;;;;122.25;64.75;;;5.30;90.20;;;;;;4987893;28;20034;-86
2022/01/27 08:52:46;;;;;;;120.07;64.50;;;5.40;90.00;;;;;;5000452;28;20382;-86
2022/01/27 08:55:12;;;;;;;108.65;60.63;;;5.40;89.80;;;;;;5014525;28;20041;-85
2022/01/27 08:57:38;;;;;;;109.30;58.05;;;5.50;89.90;;;;;;5006588;28;20050;-84
2022/01/27 09:00:07;;;;;;;134.00;70.53;;;5.60;89.50;;;;;;5000585;28;20045;-85
2022/01/27 09:02:33;;;;;;;127.13;69.57;;;5.70;89.20;;;;;;5003319;28;20132;-85
2022/01/27 09:04:58;;;;;;;122.55;63.85;;;5.70;88.80;;;;;;5000290;28;20030;-85
2022/01/27 09:07:24;;;;;;;122.20;66.45;;;5.80;89.00;;;;;;5014192;28;20046;-84
2022/01/27 09:09:50;;;;;;;133.85;69.53;;;5.80;88.50;;;;;;4998947;28;20034;-85
2022/01/27 09:12:16;;;;;;;118.10;65.15;;;5.80;88.90;;;;;;5013386;28;20038;-85
2022/01/27 09:14:43;;;;;;;103.65;59.03;;;5.80;89.20;;;;;;5014090;28;20057;-85
2022/01/27 09:17:10;;;;;;;115.13;65.82;;;5.80;88.90;;;;;;5013700;28;20049;-82
2022/01/27 09:19:39;;;;;;;105.38;57.78;;;5.80;88.60;;;;;;4980471;28;20495;-83
2022/01/27 09:22:12;;;;;;;119.75;65.57;;;5.90;88.60;;;;;;5012910;28;20042;-83
2022/01/27 09:24:49;;;;;;;139.20;78.60;;;5.90;88.30;;;;;;5012599;28;20104;-84
2022/01/27 09:27:15;;;;;;;149.30;76.18;;;5.80;88.40;;;;;;4988530;28;20041;-84
2022/01/27 09:29:41;;;;;;;129.10;71.50;;;5.70;88.60;;;;;;5006248;28;20034;-83
2022/01/27 09:32:07;;;;;;;108.82;59.08;;;5.70;89.10;;;;;;5002737;28;20529;-83
2022/01/27 09:34:34;;;;;;;111.15;62.58;;;5.80;89.70;;;;;;5009103;28;20038;-83
2022/01/27 09:37:02;;;;;;;98.90;54.58;;;5.90;89.20;;;;;;4988481;28;20447;-83
2022/01/27 09:39:32;;;;;;;104.03;60.30;;;6.00;88.90;;;;;;5007458;28;20026;-82
2022/01/27 09:42:03;;;;;;;116.57;65.68;;;6.00;88.20;;;;;;4993996;28;20446;-83
2022/01/27 09:44:33;;;;;;;101.40;55.45;;;6.00;88.00;;;;;;4984791;28;20038;-84
2022/01/27 09:47:11;;;;;;;125.70;66.57;;;6.10;88.30;;;;;;5007017;28;20485;-84
2022/01/27 09:49:51;;;;;;;119.65;63.03;;;6.10;87.80;;;;;;5008153;28;20044;-84
2022/01/27 09:52:17;;;;;;;122.38;65.13;;;6.10;87.70;;;;;;4989168;28;20125;-84
2022/01/27 09:54:45;;;;;;;126.30;70.60;;;6.10;87.70;;;;;;5006982;28;20042;-83
2022/01/27 09:57:14;;;;;;;99.47;56.90;;;6.00;87.90;;;;;;5021402;28;20034;-83
2022/01/27 09:59:42;;;;;;;98.78;57.78;;;6.00;88.30;;;;;;5000228;28;20051;-85
2022/01/27 10:02:09;;;;;;;91.38;54.03;;;6.10;88.30;;;;;;4998992;28;20116;-84
2022/01/27 10:04:45;;;;;;;99.88;59.60;;;6.20;88.20;;;;;;5017834;28;20046;-84
2022/01/27 10:07:14;;;;;;;104.60;57.97;;;6.30;87.50;;;;;;4991680;28;20074;-83
2022/01/27 10:09:40;;;;;;;121.07;69.03;;;6.30;87.60;;;;;;4998815;28;20405;-85
2022/01/27 10:12:06;;;;;;;120.93;66.78;;;6.30;87.00;;;;;;5021888;28;20042;-84
2022/01/27 10:14:37;;;;;;;114.05;63.20;;;6.20;87.30;;;;;;5016565;28;20113;-84
2022/01/27 10:17:12;;;;;;;;;;;6.20;87.30;;;;;;5017476;28;20494;-84
2022/01/27 10:19:38;;;;;;;121.30;66.28;;;6.20;87.10;;;;;;5017354;28;20270;-84
2022/01/27 10:22:06;;;;;;;123.57;64.07;;;6.20;87.00;;;;;;5015850;28;20486;-84
2022/01/27 10:24:34;;;;;;;106.97;64.75;;;6.30;87.30;;;;;;5007643;28;20044;-83
2022/01/27 10:27:20;;;;;;;114.50;64.43;;;6.40;87.00;;;;;;5015258;28;20041;-84
2022/01/27 10:30:04;;;;;;;114.43;66.53;;;6.50;86.80;;;;;;5002145;28;20089;-83
2022/01/27 10:32:48;;;;;;;133.65;77.97;;;6.40;86.70;;;;;;5015486;28;20029;-84
2022/01/27 10:35:16;;;;;;;124.72;74.32;;;6.20;87.00;;;;;;5016267;28;20089;-83
2022/01/27 10:38:01;;;;;;;112.60;67.47;;;6.20;87.50;;;;;;4998428;28;20034;-84
2022/01/27 10:40:36;;;;;;;140.23;86.00;;;6.10;88.20;;;;;;4998297;28;20052;-85
2022/01/27 10:43:08;;;;;;;143.05;83.47;;;6.10;87.90;;;;;;5016805;28;20041;-85
2022/01/27 10:45:40;;;;;;;152.13;85.40;;;6.20;88.30;;;;;;5016245;28;20042;-85
2022/01/27 10:48:20;;;;;;;117.25;68.43;;;6.10;88.10;;;;;;4998836;28;20057;-85
2022/01/27 10:51:02;;;;;;;150.77;90.40;;;6.20;88.40;;;;;;5009451;28;20030;-84
2022/01/27 10:53:54;;;;;;;133.73;77.47;;;6.20;87.80;;;;;;4998800;28;20040;-84
2022/01/27 10:56:23;;;;;;;127.82;75.35;;;6.20;88.20;;;;;;5012108;28;20045;-85
2022/01/27 10:58:50;;;;;;;121.43;71.78;;;6.30;88.10;;;;;;5016093;28;20034;-86
2022/01/27 11:01:25;;;;;;;147.15;82.93;;;6.30;88.20;;;;;;5015101;28;20104;-85
2022/01/27 11:03:53;;;;;;;136.65;81.45;;;6.40;87.60;;;;;;4990459;28;20053;-85
2022/01/27 11:06:22;;;;;;;144.95;84.93;;;6.40;87.60;;;;;;5010235;28;20133;-84
2022/01/27 11:08:48;;;;;;;150.20;89.97;;;6.20;88.30;;;;;;5015430;28;20033;-84
2022/01/27 11:11:14;;;;;;;121.70;71.35;;;6.10;88.80;;;;;;5011202;28;20081;-84
2022/01/27 11:13:44;;;;;;;119.63;68.40;;;6.20;89.30;;;;;;5015131;28;20038;-84
2022/01/27 11:16:13;;;;;;;148.70;84.07;;;6.20;89.20;;;;;;5015269;28;20094;-84
2022/01/27 11:18:40;;;;;;;151.35;88.85;;;6.30;88.30;;;;;;5015212;28;20064;-84
2022/01/27 11:21:13;;;;;;;156.45;94.00;;;6.30;88.20;;;;;;4997785;28;20037;-84
2022/01/27 11:23:59;;;;;;;142.30;82.68;;;6.20;87.80;;;;;;5013767;28;20061;-84
2022/01/27 11:26:25;;;;;;;125.03;69.72;;;6.10;88.30;;;;;;5009850;28;20125;-82
2022/01/27 11:28:52;;;;;;;150.98;89.55;;;6.20;88.50;;;;;;4995798;28;20057;-81
2022/01/27 11:32:01;;;;;;;138.38;80.32;;;6.20;87.90;;;;;;5011382;28;20042;-82
2022/01/27 11:34:53;;;;;;;139.52;79.00;;;6.10;88.10;;;;;;5013757;28;20033;-82
2022/01/27 11:37:36;;;;;;;134.30;76.45;;;6.00;88.20;;;;;;5008096;28;20061;-82
2022/01/27 11:40:04;;;;;;;105.45;59.85;;;6.00;88.60;;;;;;5012297;28;20050;-85
2022/01/27 11:43:02;;;;;;;117.35;69.13;;;6.20;88.40;;;;;;4993780;28;20033;-85
2022/01/27 11:45:37;;;;;;;147.40;88.28;;;6.30;88.40;;;;;;4992407;28;20184;-82
2022/01/27 11:48:11;;;;;;;142.27;82.13;;;6.30;87.70;;;;;;5005468;28;20046;-82
2022/01/27 11:50:47;;;;;;;120.25;66.88;;;6.30;88.10;;;;;;4996587;28;20096;-86
2022/01/27 11:53:30;;;;;;;97.82;57.97;;;6.40;88.20;;;;;;5014850;28;20041;-84
2022/01/27 11:55:59;;;;;;;131.68;76.65;;;6.60;88.20;;;;;;5011126;28;20038;-84
2022/01/27 11:58:26;;;;;;;92.80;55.90;;;6.40;87.70;;;;;;4985574;28;20055;-84
2022/01/27 12:01:29;;;;;;;91.88;53.50;;;6.60;88.10;;;;;;5007518;28;20029;-84
2022/01/27 12:04:07;;;;;;;83.38;47.67;;;6.70;87.30;;;;;;5012002;28;20046;-85
2022/01/27 12:06:59;;;;;;;89.15;51.80;;;6.90;86.90;;;;;;5006977;28;20038;-84
2022/01/27 12:09:26;;;;;;;83.85;49.47;;;7.00;86.90;;;;;;5010841;28;20042;-84
2022/01/27 12:12:12;;;;;;;123.95;73.65;;;7.20;85.70;;;;;;4996857;28;20490;-84
2022/01/27 12:14:39;;;;;;;93.90;56.38;;;7.10;84.00;;;;;;5014096;28;20120;-84
2022/01/27 12:17:08;;;;;;;87.13;53.75;;;7.20;84.20;;;;;;4996636;28;20048;-84
2022/01/27 12:19:47;;;;;;;147.70;92.13;;;7.20;84.40;;;;;;4996800;28;20208;-84
2022/01/27 12:22:15;;;;;;;112.75;67.80;;;7.10;83.40;;;;;;4994687;28;20056;-84
2022/01/27 12:24:51;;;;;;;107.70;63.03;;;6.90;84.50;;;;;;5003733;28;20034;-84
2022/01/27 12:27:18;;;;;;;126.28;73.35;;;7.00;85.20;;;;;;5004802;28;20037;-84
2022/01/27 12:29:52;;;;;;;145.80;85.57;;;6.90;85.00;;;;;;4996267;28;20056;-85
2022/01/27 12:32:21;;;;;;;124.53;77.13;;;6.80;85.00;;;;;;4989397;28;20030;-84
2022/01/27 12:34:59;;;;;;;96.85;58.97;;;6.70;85.40;;;;;;5008477;28;20034;-82
2022/01/27 12:37:39;;;;;;;94.47;57.38;;;6.80;86.10;;;;;;5006352;28;20529;-81
2022/01/27 12:40:08;;;;;;;89.95;54.55;;;6.90;85.30;;;;;;4995412;28;20505;-81
2022/01/27 12:42:38;;;;;;;88.63;53.20;;;6.90;85.10;;;;;;5011635;28;20034;-82
2022/01/27 12:45:11;;;;;;;86.88;51.55;;;7.10;85.10;;;;;;5013570;28;20033;-82
2022/01/27 12:47:43;;;;;;;131.43;79.53;;;7.10;84.60;;;;;;4995719;28;20191;-81
2022/01/27 12:50:12;;;;;;;95.03;57.00;;;7.00;84.70;;;;;;4994897;28;20057;-82
2022/01/27 12:52:47;;;;;;;93.63;53.45;;;7.10;84.80;;;;;;5013060;28;20085;-83
2022/01/27 12:55:21;;;;;;;79.53;48.30;;;7.20;84.50;;;;;;5008334;28;20038;-82
2022/01/27 12:57:58;;;;;;;83.32;49.50;;;7.30;84.20;;;;;;4986230;28;20128;-84
2022/01/27 13:00:25;;;;;;;81.22;47.90;;;7.40;83.70;;;;;;4984265;28;20047;-84
2022/01/27 13:02:57;;;;;;;81.85;49.78;;;7.40;83.10;;;;;;5003517;28;20502;-84
2022/01/27 13:05:23;;;;;;;84.10;49.95;;;7.50;82.90;;;;;;5006124;28;20100;-84
2022/01/27 13:07:49;;;;;;;85.22;50.33;;;7.60;82.70;;;;;;5006515;28;20052;-84
2022/01/27 13:10:17;;;;;;;85.15;50.40;;;7.60;82.90;;;;;;5002351;28;20113;-82
2022/01/27 13:15:15;;;;;;;98.40;58.63;;;7.70;82.00;;;;;;5006317;28;20145;-81
2022/01/27 13:18:01;;;;;;;96.15;55.65;;;7.60;82.50;;;;;;5002955;28;20038;-82